Terminal Aerodrome Forecast
Issued by NWS Paducah, KY

Home | Current Version | Previous Version | Text Only | Print | Product List | Glossary On
Versions: 1 2 3 4 5 6 7 8 9 10 11 12 13 14
000
FTUS43 KPAH 202300 RRA
TAFEVV
TAF
KEVV 202340Z 2100/2124 22004KT P6SM FEW120 SCT250
     FM210700 25007KT P6SM VCSH BKN040 OVC090
     FM211400 30012G18KT P6SM SKC=

USA.gov is the U.S. government's official web portal to all federal, state and local government web resources and services.